Data for 12/31/2012

Time Sea-Level Adjusted Pressure Absolute Pressure Temperature Relative Humidity Dew Point   
(mb) (inHg) (mb) (inHg) (C) (F) (%) (C) (F)
00:05 1018 30.06 848 25.04 -10.7 12.8 78 -13.9 7
00:10 1018 30.06 848 25.04 -10.7 12.7 79 -13.7 7.4
00:15 1019 30.09 848 25.04 -10.6 13 80 -13.5 7.8
00:20 1019 30.09 848 25.04 -10.6 13 81 -13.3 8.1
00:25 1019 30.09 848 25.04 -10.5 13 81 -13.2 8.2
00:30 1019 30.09 848 25.04 -10.4 13.3 80 -13.2 8.2
00:35 1019 30.09 848 25.04 -10.1 13.9 78 -13.3 8.1
00:40 1019 30.09 848 25.04 -9.7 14.6 75 -13.3 8.1
00:45 1019 30.09 848 25.04 -9.5 14.9 76 -13 8.6
00:50 1018 30.06 848 25.04 -9.5 14.9 76 -13 8.7
00:55 1018 30.06 848 25.04 -9.3 15.2 76 -12.8 8.9
01:00 1018 30.06 848 25.04 -9.2 15.4 76 -12.7 9.2
01:05 1018 30.06 848 25.04 -9.2 15.5 77 -12.6 9.4
01:10 1018 30.06 848 25.04 -8.9 16 75 -12.5 9.5
01:15 1018 30.06 848 25.04 -8.6 16.6 74 -12.4 9.7
01:20 1018 30.06 848 25.04 -8.4 16.9 73 -12.3 9.8
01:25 1018 30.06 847 25.01 -8.4 16.9 73 -12.4 9.8
01:30 1018 30.06 847 25.01 -8.6 16.6 73 -12.5 9.5
01:35 1018 30.06 847 25.01 -8.5 16.8 74 -12.4 9.7
01:40 1018 30.06 847 25.01 -8.3 17 73 -12.3 9.9
01:45 1018 30.06 847 25.01 -8.3 17.1 73 -12.3 9.9
01:50 1018 30.06 847 25.01 -8.2 17.2 73 -12.2 10
01:55 1018 30.06 847 25.01 -8.2 17.2 73 -12.3 9.9
02:00 1018 30.06 847 25.01 -8.2 17.2 73 -12.3 9.9
02:05 1018 30.06 847 25.01 -8.2 17.2 73 -12.3 9.9
02:10 1018 30.06 847 25.01 -8.2 17.2 74 -12.1 10.1
02:15 1018 30.06 847 25.01 -8.4 16.9 74 -12.2 10
02:20 1018 30.06 847 25.01 -8.5 16.8 73 -12.4 9.6
02:25 1018 30.06 847 25.01 -8.4 17 73 -12.4 9.6
02:30 1018 30.06 847 25.01 -8.3 17.1 72 -12.4 9.6
02:35 1018 30.06 847 25.01 -8.2 17.2 72 -12.4 9.7
02:40 1018 30.06 847 25.01 -8.3 17.1 74 -12.2 10.1
02:45 1018 30.06 847 25.01 -8.4 16.8 76 -12 10.4
02:50 1018 30.06 847 25.01 -8.8 16.2 77 -12.1 10.2
02:55 1018 30.06 847 25.01 -9 15.8 77 -12.3 9.8
03:00 1018 30.06 847 25.01 -9.2 15.4 78 -12.4 9.7
03:05 1018 30.06 847 25.01 -9.2 15.5 77 -12.6 9.4
03:10 1018 30.06 847 25.01 -9.3 15.3 77 -12.5 9.4
03:15 1018 30.06 847 25.01 -9.4 15.2 78 -12.6 9.4
03:20 1018 30.06 848 25.04 -9.3 15.2 77 -12.6 9.3
03:25 1018 30.06 848 25.04 -9.2 15.4 77 -12.5 9.5
03:30 1018 30.06 848 25.04 -9.1 15.7 77 -12.4 9.6
03:35 1019 30.09 848 25.04 -9 15.8 76 -12.4 9.6
03:40 1019 30.09 848 25.04 -8.9 15.9 76 -12.5 9.6
03:45 1019 30.09 848 25.04 -8.9 15.9 76 -12.5 9.6
03:50 1019 30.09 848 25.04 -8.9 15.9 76 -12.4 9.6
03:55 1019 30.09 848 25.04 -9 15.7 76 -12.5 9.6
04:00 1019 30.09 848 25.04 -9.1 15.6 77 -12.4 9.6
04:05 1019 30.09 848 25.04 -9.1 15.5 77 -12.5 9.5
04:10 1019 30.09 848 25.04 -9.2 15.5 78 -12.4 9.7
04:15 1019 30.09 848 25.04 -9.2 15.5 77 -12.5 9.5
04:20 1019 30.09 848 25.04 -9.2 15.4 78 -12.4 9.7
04:25 1019 30.09 848 25.04 -9.3 15.3 78 -12.4 9.7
04:30 1019 30.09 848 25.04 -9.3 15.2 79 -12.4 9.7
04:35 1019 30.09 848 25.04 -9.3 15.4 78 -12.5 9.6
04:40 1019 30.09 848 25.04 -9.2 15.5 78 -12.3 9.8
04:45 1019 30.09 848 25.04 -9.1 15.6 77 -12.4 9.7
04:50 1019 30.09 848 25.04 -9.1 15.6 78 -12.3 9.8
04:55 1019 30.09 848 25.04 -9.1 15.6 77 -12.4 9.7
05:00 1019 30.09 848 25.04 -9 15.7 76 -12.5 9.6
05:05 1019 30.09 848 25.04 -9 15.9 76 -12.4 9.7
05:10 1019 30.09 848 25.04 -9 15.8 76 -12.5 9.5
05:15 1019 30.09 848 25.04 -9.1 15.6 76 -12.5 9.4
05:20 1019 30.09 848 25.04 -9.1 15.7 76 -12.5 9.5
05:25 1019 30.09 848 25.04 -9 15.8 76 -12.5 9.4
05:30 1019 30.09 848 25.04 -9 15.8 75 -12.6 9.3
05:35 1019 30.09 848 25.04 -9.1 15.7 75 -12.7 9.2
05:40 1019 30.09 848 25.04 -9 15.8 75 -12.7 9.2
05:45 1019 30.09 848 25.04 -9 15.9 74 -12.7 9.1
05:50 1019 30.09 848 25.04 -9 15.9 74 -12.8 8.9
05:55 1019 30.09 848 25.04 -9.1 15.7 75 -12.8 9
06:00 1019 30.09 848 25.04 -9.1 15.6 75 -12.8 8.9
06:05 1019 30.09 848 25.04 -9 15.7 75 -12.8 9
06:10 1019 30.09 848 25.04 -9 15.9 75 -12.7 9.2
06:15 1019 30.09 848 25.04 -8.9 15.9 75 -12.6 9.3
06:20 1019 30.09 848 25.04 -8.9 16 75 -12.6 9.3
06:25 1018 30.06 848 25.04 -8.8 16.2 75 -12.5 9.5
06:30 1018 30.06 848 25.04 -8.7 16.3 74 -12.5 9.5
06:35 1018 30.06 848 25.04 -8.7 16.3 74 -12.5 9.4
06:40 1018 30.06 848 25.04 -8.7 16.3 75 -12.5 9.6
06:45 1018 30.06 848 25.04 -8.9 16 77 -12.3 9.9
06:50 1018 30.06 848 25.04 -9.1 15.7 76 -12.5 9.5
06:55 1018 30.06 848 25.04 -9.2 15.5 79 -12.2 10
07:00 1018 30.06 848 25.04 -9.3 15.3 79 -12.3 9.8
07:05 1019 30.09 848 25.04 -9.2 15.4 78 -12.4 9.7
07:10 1019 30.09 848 25.04 -9.1 15.5 79 -12.2 10.1
07:15 1019 30.09 848 25.04 -9.1 15.6 78 -12.2 10
07:20 1019 30.09 848 25.04 -9 15.8 77 -12.3 9.8
07:25 1019 30.09 848 25.04 -9.1 15.6 78 -12.3 9.9
07:30 1019 30.09 848 25.04 -9.1 15.7 77 -12.3 9.8
07:35 1019 30.09 848 25.04 -8.9 15.9 76 -12.5 9.5
07:40 1019 30.09 848 25.04 -8.8 16.1 75 -12.4 9.7
07:45 1019 30.09 848 25.04 -8.6 16.5 75 -12.4 9.8
07:50 1019 30.09 848 25.04 -8.6 16.6 74 -12.4 9.6
07:55 1019 30.09 848 25.04 -8.6 16.5 74 -12.5 9.5
08:00 1019 30.09 848 25.04 -8.6 16.6 73 -12.6 9.3
08:05 1019 30.09 848 25.04 -8.6 16.6 72 -12.7 9.1
08:10 1019 30.09 848 25.04 -8.6 16.6 70 -13.1 8.5
08:15 1019 30.09 848 25.04 -8.6 16.6 69 -13.2 8.2
08:20 1019 30.09 848 25.04 -8.5 16.7 68 -13.5 7.8
08:25 1019 30.09 848 25.04 -8.5 16.8 67 -13.5 7.7
08:30 1019 30.09 848 25.04 -8.5 16.8 67 -13.5 7.6
08:35 1019 30.09 848 25.04 -8.4 16.8 66 -13.6 7.5
08:40 1019 30.09 848 25.04 -8.4 16.8 67 -13.5 7.7
08:45 1019 30.09 848 25.04 -8.5 16.8 67 -13.5 7.6
08:50 1019 30.09 848 25.04 -8.4 16.9 67 -13.5 7.6
08:55 1019 30.09 848 25.04 -8.3 17.1 66 -13.6 7.5
09:00 1019 30.09 848 25.04 -8.3 17.1 66 -13.5 7.7
09:05 1019 30.09 848 25.04 -8.2 17.3 66 -13.5 7.7
09:10 1019 30.09 848 25.04 -8.1 17.4 65 -13.6 7.6
09:15 1019 30.09 848 25.04 -8.1 17.4 65 -13.5 7.7
09:20 1019 30.09 848 25.04 -8.1 17.5 65 -13.5 7.7
09:25 1019 30.09 848 25.04 -8.1 17.5 66 -13.4 8
09:30 1019 30.09 848 25.04 -8 17.6 65 -13.5 7.6
09:35 1019 30.09 848 25.04 -8 17.6 65 -13.5 7.7
09:40 1019 30.09 848 25.04 -7.9 17.7 65 -13.4 7.8
09:45 1019 30.09 848 25.04 -8 17.6 65 -13.5 7.8
09:50 1019 30.09 848 25.04 -8 17.6 65 -13.4 7.8
09:55 1019 30.09 848 25.04 -8.1 17.5 65 -13.6 7.5
10:00 1019 30.09 848 25.04 -8.1 17.5 64 -13.7 7.3
10:05 1019 30.09 848 25.04 -8 17.6 64 -13.7 7.3
10:10 1019 30.09 848 25.04 -8 17.7 64 -13.7 7.3
10:15 1019 30.09 848 25.04 -7.9 17.8 62 -13.9 7
10:20 1019 30.09 848 25.04 -8 17.7 62 -13.9 6.9
10:25 1019 30.09 849 25.07 -8 17.7 62 -14 6.8
10:30 1019 30.09 849 25.07 -7.9 17.8 62 -13.9 7
10:35 1019 30.09 849 25.07 -7.8 18.1 62 -13.8 7.2
10:40 1020 30.12 849 25.07 -7.8 18 63 -13.7 7.3
10:45 1020 30.12 849 25.07 -7.8 18 61 -14 6.8
10:50 1020 30.12 849 25.07 -8 17.7 62 -14.1 6.7
10:55 1020 30.12 849 25.07 -8 17.7 61 -14.2 6.4
11:00 1020 30.12 849 25.07 -7.6 18.3 59 -14.2 6.4
11:05 1020 30.12 849 25.07 -7.3 18.8 58 -14.1 6.6
11:10 1020 30.12 849 25.07 -7.1 19.3 59 -13.7 7.3
11:15 1020 30.12 849 25.07 -6.9 19.6 58 -13.8 7.1
11:20 1020 30.12 849 25.07 -6.8 19.7 57 -13.9 6.9
11:25 1020 30.12 849 25.07 -6.9 19.5 58 -14 6.9
11:30 1020 30.12 849 25.07 -7 19.4 58 -14.1 6.7
11:35 1020 30.12 849 25.07 -7.1 19.2 58 -13.9 6.9
11:40 1020 30.12 849 25.07 -7.1 19.3 59 -13.8 7.2
11:45 1020 30.12 849 25.07 -7 19.4 59 -13.8 7.1
11:50 1020 30.12 849 25.07 -6.8 19.8 58 -13.8 7.2
11:55 1020 30.12 849 25.07 -6.7 20 57 -13.9 6.9
12:00 1020 30.12 849 25.07 -6.7 19.9 55 -14.2 6.4
12:05 1020 30.12 849 25.07 -6.6 20.1 53 -14.7 5.6
12:10 1020 30.12 849 25.07 -5.9 21.4 51 -14.4 6
12:15 1020 30.12 849 25.07 -5.8 21.5 52 -14.3 6.3
12:20 1020 30.12 849 25.07 -6.1 21 51 -14.8 5.4
12:25 1020 30.12 849 25.07 -5.8 21.5 50 -14.8 5.4
12:30 1020 30.12 849 25.07 -5.5 22.1 50 -14.3 6.2
12:35 1020 30.12 849 25.07 -5.4 22.4 49 -14.5 6
12:40 1019 30.09 849 25.07 -4.7 23.5 46 -14.6 5.7
12:45 1019 30.09 849 25.07 -4.4 24.1 46 -14.3 6.2
12:50 1019 30.09 849 25.07 -4.6 23.7 47 -14.4 6.1
12:55 1019 30.09 848 25.04 -4.5 23.8 46 -14.5 5.9
13:00 1019 30.09 848 25.04 -4.1 24.5 46 -14.1 6.7
13:05 1019 30.09 848 25.04 -4.4 24.1 49 -13.5 7.7
13:10 1019 30.09 848 25.04 -4.5 23.9 48 -14 6.7
13:15 1019 30.09 848 25.04 -4.8 23.4 50 -13.6 7.5
13:20 1019 30.09 848 25.04 -4.5 23.9 48 -13.9 7.1
13:25 1019 30.09 848 25.04 -5.1 22.8 50 -13.9 7
13:30 1019 30.09 848 25.04 -4.6 23.7 50 -13.7 7.4
13:35 1019 30.09 848 25.04 -4.8 23.4 51 -13.4 7.9
13:40 1019 30.09 848 25.04 -4.6 23.8 49 -13.6 7.4
13:45 1019 30.09 848 25.04 -5.6 22 56 -13.1 8.4
13:50 1019 30.09 848 25.04 -5.6 21.9 56 -13 8.6
13:55 1019 30.09 848 25.04 -6.1 21 57 -13.3 8.1
14:00 1019 30.09 848 25.04 -5.2 22.6 54 -13.1 8.5
14:05 1019 30.09 848 25.04 -5.5 22.2 58 -12.5 9.4
14:10 1019 30.09 848 25.04 -5.7 21.7 57 -13 8.5
14:15 1019 30.09 848 25.04 -4.8 23.3 52 -13.2 8.3
14:20 1019 30.09 848 25.04 -4.3 24.3 51 -12.9 8.7
14:25 1019 30.09 848 25.04 -4.2 24.4 50 -13.1 8.4
14:30 1019 30.09 848 25.04 -3.9 24.9 50 -12.9 8.7
14:35 1019 30.09 848 25.04 -4.1 24.6 50 -13 8.6
14:40 1019 30.09 848 25.04 -4 24.8 53 -12.2 10.1
14:45 1019 30.09 848 25.04 -5.8 21.5 60 -12.3 9.8
14:50 1019 30.09 848 25.04 -5.6 22 57 -12.8 8.9
14:55 1019 30.09 848 25.04 -5.2 22.7 56 -12.7 9.1
15:00 1019 30.09 848 25.04 -5.2 22.6 57 -12.4 9.8
15:05 1019 30.09 848 25.04 -5.4 22.2 58 -12.5 9.6
15:10 1019 30.09 848 25.04 -6.3 20.6 60 -12.9 8.8
15:15 1019 30.09 848 25.04 -6.1 21 60 -12.7 9.1
15:20 1019 30.09 848 25.04 -5.5 22.1 57 -12.7 9.1
15:25 1019 30.09 848 25.04 -5.7 21.8 60 -12.2 10
15:30 1019 30.09 848 25.04 -6.8 19.8 62 -13 8.7
15:35 1019 30.09 848 25.04 -6.7 20 61 -13 8.6
15:40 1019 30.09 848 25.04 -6.2 20.9 58 -13.2 8.2
15:45 1019 30.09 848 25.04 -6.1 21 59 -12.9 8.7
15:50 1019 30.09 848 25.04 -6.6 20.1 60 -13.2 8.3
15:55 1019 30.09 848 25.04 -6.9 19.5 62 -13 8.6
16:00 1019 30.09 848 25.04 -7.5 18.6 64 -13.2 8.2
16:05 1019 30.09 848 25.04 -6.9 19.6 58 -13.7 7.3
16:10 1019 30.09 848 25.04 -6.6 20.1 59 -13.4 7.8
16:15 1019 30.09 848 25.04 -6 21.1 57 -13.1 8.3
16:20 1019 30.09 848 25.04 -6.4 20.4 61 -12.7 9.2
16:25 1019 30.09 848 25.04 -6.8 19.8 61 -13.1 8.4
16:30 1019 30.09 848 25.04 -6.8 19.8 60 -13.3 8.1
16:35 1019 30.09 849 25.07 -6.9 19.6 60 -13.5 7.8
16:40 1019 30.09 848 25.04 -7 19.3 60 -13.5 7.8
16:45 1019 30.09 848 25.04 -7.1 19.3 62 -13.1 8.5
16:50 1019 30.09 848 25.04 -7.3 18.9 62 -13.3 8.1
16:55 1019 30.09 848 25.04 -7.4 18.7 63 -13.3 8
17:00 1019 30.09 848 25.04 -7.3 18.9 62 -13.4 8
17:05 1019 30.09 849 25.07 -7.3 18.8 62 -13.4 7.9
17:10 1019 30.09 848 25.04 -7.6 18.4 63 -13.4 7.9
17:15 1019 30.09 849 25.07 -7.7 18.1 64 -13.4 7.9
17:20 1019 30.09 849 25.07 -7.7 18.1 63 -13.6 7.6
17:25 1019 30.09 849 25.07 -7.6 18.3 62 -13.6 7.4
17:30 1019 30.09 849 25.07 -7.4 18.7 61 -13.6 7.5
17:35 1019 30.09 849 25.07 -7.2 19 63 -13.2 8.2
17:40 1019 30.09 849 25.07 -7.1 19.2 60 -13.5 7.6
17:45 1019 30.09 849 25.07 -7.2 19 63 -13.1 8.5
17:50 1019 30.09 849 25.07 -7.3 18.8 64 -13 8.6
17:55 1019 30.09 849 25.07 -7.5 18.6 64 -13.2 8.3
18:00 1019 30.09 849 25.07 -7.6 18.4 65 -13.1 8.3
18:05 1019 30.09 849 25.07 -7.6 18.4 62 -13.6 7.4
18:10 1019 30.09 849 25.07 -7.6 18.4 63 -13.4 7.9
18:15 1019 30.09 849 25.07 -7.3 18.9 61 -13.6 7.5
18:20 1019 30.09 849 25.07 -7.2 19 60 -13.8 7.2
18:25 1020 30.12 849 25.07 -7.2 19.1 61 -13.4 7.9
18:30 1020 30.12 849 25.07 -6.9 19.6 60 -13.4 7.9
18:35 1020 30.12 849 25.07 -6.8 19.9 59 -13.5 7.6
18:40 1020 30.12 849 25.07 -6.7 20 58 -13.7 7.3
18:45 1020 30.12 849 25.07 -6.7 20 60 -13.1 8.4
18:50 1020 30.12 849 25.07 -6.8 19.8 62 -13 8.6
18:55 1019 30.09 849 25.07 -6.9 19.6 60 -13.5 7.7
19:00 1019 30.09 849 25.07 -6.9 19.6 62 -13.1 8.4
19:05 1019 30.09 849 25.07 -7.1 19.2 64 -12.7 9.1
19:10 1019 30.09 849 25.07 -7.2 19 66 -12.6 9.3
19:15 1020 30.12 849 25.07 -7.1 19.2 64 -12.8 8.9
19:20 1020 30.12 849 25.07 -7 19.4 63 -12.9 8.8
19:25 1020 30.12 849 25.07 -7.2 19.1 64 -13 8.7
19:30 1020 30.12 849 25.07 -7.3 18.9 62 -13.4 7.9
19:35 1020 30.12 849 25.07 -7.3 18.9 62 -13.5 7.8
19:40 1020 30.12 849 25.07 -7.2 19 61 -13.5 7.7
19:45 1020 30.12 849 25.07 -7.2 19 62 -13.3 8.1
19:50 1020 30.12 849 25.07 -7.2 19.1 62 -13.2 8.2
19:55 1020 30.12 849 25.07 -6.9 19.6 61 -13.2 8.2
20:00 1020 30.12 849 25.07 -6.8 19.8 61 -13.2 8.3
20:05 1020 30.12 849 25.07 -6.7 19.9 61 -13 8.6
20:10 1020 30.12 849 25.07 -6.7 20 63 -12.6 9.4
20:15 1020 30.12 849 25.07 -6.9 19.6 62 -13.1 8.5
20:20 1020 30.12 849 25.07 -7 19.4 61 -13.3 8
20:25 1020 30.12 849 25.07 -6.8 19.8 59 -13.6 7.5
20:30 1020 30.12 849 25.07 -6.5 20.3 56 -13.8 7.1
20:35 1020 30.12 849 25.07 -6.5 20.2 59 -13.2 8.3
20:40 1020 30.12 849 25.07 -6.7 20 62 -12.8 8.9
20:45 1020 30.12 849 25.07 -6.7 19.9 62 -12.8 8.9
20:50 1020 30.12 849 25.07 -6.8 19.8 60 -13.4 7.9
20:55 1020 30.12 849 25.07 -6.7 19.9 63 -12.7 9.2
21:00 1020 30.12 849 25.07 -6.7 19.9 62 -12.8 9
21:05 1020 30.12 849 25.07 -6.7 19.9 61 -13 8.7
21:10 1020 30.12 849 25.07 -6.7 20 62 -12.8 9
21:15 1020 30.12 849 25.07 -6.6 20 62 -12.8 9
21:20 1020 30.12 849 25.07 -6.7 20 63 -12.6 9.3
21:25 1020 30.12 849 25.07 -6.6 20.2 61 -13 8.7
21:30 1020 30.12 849 25.07 -6.6 20.2 61 -12.8 8.9
21:35 1020 30.12 849 25.07 -6.4 20.4 62 -12.5 9.5
21:40 1020 30.12 849 25.07 -6.3 20.6 62 -12.5 9.5
21:45 1020 30.12 849 25.07 -6.2 20.8 61 -12.6 9.3
21:50 1020 30.12 849 25.07 -6.2 20.8 61 -12.5 9.5
21:55 1020 30.12 849 25.07 -6.3 20.7 60 -12.8 9
22:00 1020 30.12 849 25.07 -6.2 20.8 61 -12.5 9.6
22:05 1020 30.12 849 25.07 -6.2 20.8 64 -12 10.3
22:10 1020 30.12 849 25.07 -6.3 20.7 65 -11.9 10.6
22:15 1020 30.12 849 25.07 -6.1 20.9 65 -11.7 11
22:20 1020 30.12 849 25.07 -6.2 20.9 64 -11.8 10.7
22:25 1020 30.12 849 25.07 -6.3 20.7 65 -11.8 10.7
22:30 1020 30.12 850 25.1 -6.4 20.4 64 -12.1 10.2
22:35 1020 30.12 850 25.1 -6.5 20.3 65 -12 10.3
22:40 1020 30.12 850 25.1 -6.5 20.3 65 -12 10.4
22:45 1020 30.12 850 25.1 -6.6 20.1 65 -12 10.3
22:50 1021 30.15 850 25.1 -6.7 20 66 -12 10.3
22:55 1021 30.15 850 25.1 -6.7 19.9 65 -12.2 10
23:00 1021 30.15 850 25.1 -6.8 19.8 66 -12.1 10.1
23:05 1021 30.15 850 25.1 -6.8 19.8 65 -12.3 9.9
23:10 1021 30.15 850 25.1 -6.7 19.9 65 -12.3 9.8
23:15 1021 30.15 850 25.1 -6.8 19.8 64 -12.4 9.6
23:20 1021 30.15 850 25.1 -6.8 19.8 64 -12.5 9.4
23:25 1021 30.15 850 25.1 -6.8 19.8 65 -12.4 9.8
23:30 1021 30.15 850 25.1 -6.8 19.8 65 -12.2 10
23:35 1021 30.15 850 25.1 -6.7 20 65 -12.2 10
23:40 1021 30.15 850 25.1 -6.7 20 66 -12.1 10.3
23:45 1021 30.15 850 25.1 -6.7 19.9 66 -12 10.3
23:50 1021 30.15 850 25.1 -6.8 19.8 66 -12 10.4
23:55 1021 30.15 850 25.1 -6.9 19.6 68 -11.8 10.7
24:00 1021 30.15 851 25.13 -6.9 19.6 68 -11.8 10.7